Time;durP1;ratioP1;P1;durP2;ratioP2;P2;SDS_P1;SDS_P2;PMS_P1;PMS_P2;Temp;Humidity;BMP_temperature;BMP_pressure;BME280_temperature;BME280_humidity;BME280_pressure;Samples;Min_cycle;Max_cycle;Signal;HPM_P1;HPM_P2
2023/05/27 00:01:22;;;;;;;0.20;0.20;;;13.50;99.90;;;;;;5060581;28;20191;-80
2023/05/27 00:03:48;;;;;;;0.20;0.20;;;13.40;99.90;;;;;;5060878;28;20028;-74
2023/05/27 00:06:14;;;;;;;0.52;0.52;;;13.40;99.90;;;;;;5044990;28;20036;-75
2023/05/27 00:08:39;;;;;;;0.17;0.17;;;13.40;99.90;;;;;;5060163;28;20024;-75
2023/05/27 00:11:05;;;;;;;0.20;0.20;;;13.40;99.90;;;;;;5061492;28;20090;-75
2023/05/27 00:13:31;;;;;;;0.20;0.20;;;13.40;99.90;;;;;;5059723;28;20380;-75
2023/05/27 00:15:57;;;;;;;0.20;0.20;;;13.30;99.90;;;;;;5059883;28;20032;-75
2023/05/27 00:18:23;;;;;;;0.20;0.20;;;13.40;99.90;;;;;;5059389;28;20024;-76
2023/05/27 00:20:49;;;;;;;0.20;0.20;;;13.40;99.90;;;;;;5059720;28;20020;-75
2023/05/27 00:23:15;;;;;;;0.20;0.20;;;13.30;99.90;;;;;;5059504;28;20078;-74
2023/05/27 00:25:41;;;;;;;0.20;0.20;;;13.30;99.90;;;;;;5060166;28;20107;-79
2023/05/27 00:28:07;;;;;;;0.10;0.10;;;13.70;99.90;;;;;;5060553;28;20104;-74
2023/05/27 00:30:33;;;;;;;0.93;0.93;;;13.20;99.90;;;;;;5060362;28;20093;-75
2023/05/27 00:32:58;;;;;;;0.20;0.20;;;13.30;99.90;;;;;;5061113;28;20522;-74
2023/05/27 00:35:25;;;;;;;0.20;0.20;;;13.30;99.90;;;;;;5060254;28;20074;-74
2023/05/27 00:37:51;;;;;;;0.17;0.17;;;13.50;99.90;;;;;;5060748;28;20031;-74
2023/05/27 00:40:21;;;;;;;6.78;4.72;;;13.30;99.90;;;;;;5061986;28;20020;-74
2023/05/27 00:42:48;;;;;;;0.20;0.20;;;13.30;99.90;;;;;;5059903;28;20095;-74
2023/05/27 00:45:14;;;;;;;0.20;0.20;;;12.40;99.90;;;;;;5059082;28;20380;-74
2023/05/27 00:47:40;;;;;;;0.20;0.20;;;;;;;;;;5059786;28;20104;-75
2023/05/27 00:50:07;;;;;;;0.10;0.10;;;13.30;99.90;;;;;;5059106;28;20307;-76
2023/05/27 00:52:34;;;;;;;0.82;0.82;;;13.30;99.90;;;;;;5060462;28;20024;-87
2023/05/27 00:55:01;;;;;;;0.63;0.63;;;13.30;99.90;;;;;;5063991;28;20453;-77
2023/05/27 00:57:27;;;;;;;7.32;4.28;;;13.30;99.90;;;;;;5064135;28;20025;-76
2023/05/27 00:59:53;;;;;;;0.10;0.10;;;13.30;99.90;;;;;;5064004;28;20491;-75
2023/05/27 01:02:20;;;;;;;0.65;0.65;;;13.20;99.90;;;;;;5064868;28;20024;-82
2023/05/27 01:04:47;;;;;;;0.30;0.30;;;13.30;99.90;;;;;;5060882;28;20012;-76
2023/05/27 01:07:59;;;;;;;3.60;2.85;;;13.30;99.90;;;;;;5062373;28;20506;-84
2023/05/27 01:10:32;;;;;;;2.67;2.58;;;13.30;99.90;;;;;;5062831;28;20023;-87
2023/05/27 01:13:46;;;;;;;0.20;0.20;;;13.30;99.90;;;;;;5061915;28;20495;-83
2023/05/27 01:16:14;;;;;;;0.52;0.52;;;13.30;99.90;;;;;;4961747;28;20047;-91
2023/05/27 01:18:44;;;;;;;0.20;0.20;;;13.30;99.90;;;;;;4960915;28;20142;-85
2023/05/27 01:21:16;;;;;;;0.20;0.20;;;13.30;99.90;;;;;;4965172;28;20046;-77
2023/05/27 01:23:42;;;;;;;0.20;0.20;;;13.30;99.90;;;;;;4942408;28;20460;-75
2023/05/27 01:26:08;;;;;;;2.30;2.20;;;13.30;99.90;;;;;;4958268;28;20062;-77
2023/05/27 01:28:35;;;;;;;0.20;0.20;;;13.30;99.90;;;;;;4957311;28;20126;-75
2023/05/27 01:31:18;;;;;;;0.10;0.10;;;13.30;99.90;;;;;;4957189;28;20060;-75
2023/05/27 01:33:55;;;;;;;0.63;0.63;;;13.30;99.90;;;;;;4959600;28;20248;-75
2023/05/27 01:36:25;;;;;;;0.20;0.20;;;13.30;99.90;;;;;;4957780;28;20034;-75
2023/05/27 01:38:52;;;;;;;3.83;2.75;;;13.30;99.90;;;;;;4958983;28;20030;-76
2023/05/27 01:41:19;;;;;;;0.20;0.20;;;13.20;99.90;;;;;;4957832;28;20097;-77
2023/05/27 01:44:04;;;;;;;0.20;0.20;;;13.20;99.90;;;;;;4961745;28;20069;-86
2023/05/27 01:46:30;;;;;;;1.95;1.85;;;13.20;99.90;;;;;;4961169;28;20242;-75
2023/05/27 01:48:57;;;;;;;0.10;0.10;;;13.20;99.90;;;;;;4959458;28;20111;-75
2023/05/27 01:51:22;;;;;;;0.30;0.30;;;13.20;99.90;;;;;;4960018;28;20170;-76
2023/05/27 01:53:48;;;;;;;0.20;0.20;;;13.20;99.90;;;;;;5058662;28;20044;-89
2023/05/27 01:56:14;;;;;;;0.20;0.20;;;13.20;99.90;;;;;;5060849;28;20024;-92
2023/05/27 01:58:42;;;;;;;0.20;0.20;;;13.30;99.90;;;;;;5063555;28;20471;-92
2023/05/27 02:01:22;;;;;;;0.20;0.20;;;13.30;99.90;;;;;;5063955;28;20099;-87
2023/05/27 02:03:48;;;;;;;0.20;0.20;;;13.30;99.90;;;;;;5061941;28;20081;-88
2023/05/27 02:06:14;;;;;;;0.20;0.20;;;13.40;99.90;;;;;;5063092;28;20032;-89
2023/05/27 02:08:40;;;;;;;0.30;0.30;;;13.40;99.90;;;;;;5060533;28;20194;-92
2023/05/27 02:11:13;;;;;;;0.73;0.73;;;13.40;99.90;;;;;;5060578;28;20021;-93
2023/05/27 02:13:42;;;;;;;0.20;0.20;;;13.40;99.90;;;;;;5063285;28;20031;-84
2023/05/27 02:16:08;;;;;;;2.42;2.22;;;13.40;99.90;;;;;;5043094;28;20036;-93
2023/05/27 02:18:37;;;;;;;0.10;0.10;;;13.30;99.90;;;;;;5060676;28;20024;-94
2023/05/27 02:21:05;;;;;;;0.20;0.20;;;13.20;99.90;;;;;;5060469;28;20024;-76
2023/05/27 02:23:32;;;;;;;0.20;0.20;;;13.10;99.90;;;;;;5064396;28;20391;-92
2023/05/27 02:26:05;;;;;;;0.20;0.20;;;13.10;99.90;;;;;;5067351;28;20020;-85
2023/05/27 02:28:31;;;;;;;0.20;0.20;;;13.10;99.90;;;;;;5046222;28;20131;-93
2023/05/27 02:30:58;;;;;;;0.10;0.10;;;13.20;99.90;;;;;;5046123;28;20046;-90
2023/05/27 02:33:24;;;;;;;0.20;0.20;;;13.20;99.90;;;;;;5059610;28;20036;-89
2023/05/27 02:35:54;;;;;;;4.03;3.83;;;13.20;99.90;;;;;;5063456;28;20037;-86
2023/05/27 02:38:20;;;;;;;1.33;1.23;;;13.20;99.90;;;;;;5046058;28;20423;-77
2023/05/27 02:40:46;;;;;;;0.20;0.20;;;13.20;99.90;;;;;;5051213;28;20047;-77
2023/05/27 02:43:21;;;;;;;0.32;0.32;;;13.20;99.90;;;;;;5069695;28;20079;-86
2023/05/27 02:45:46;;;;;;;0.40;0.40;;;13.20;99.90;;;;;;5074274;28;20340;-90
2023/05/27 02:48:12;;;;;;;0.20;0.20;;;13.20;99.90;;;;;;5063643;28;20202;-87
2023/05/27 02:50:38;;;;;;;0.20;0.20;;;13.20;99.90;;;;;;5073291;28;20021;-87
2023/05/27 02:53:04;;;;;;;0.20;0.20;;;13.20;99.90;;;;;;5070594;28;20049;-87
2023/05/27 02:55:30;;;;;;;0.20;0.20;;;13.30;99.90;;;;;;5063433;28;20091;-89
2023/05/27 02:57:58;;;;;;;0.20;0.20;;;13.20;99.90;;;;;;5061998;28;20205;-93
2023/05/27 03:00:24;;;;;;;0.20;0.20;;;13.30;99.90;;;;;;5061737;28;20594;-87
2023/05/27 03:02:50;;;;;;;0.20;0.20;;;13.30;99.90;;;;;;5069527;28;20031;-94
2023/05/27 03:05:16;;;;;;;0.20;0.20;;;13.30;99.90;;;;;;5061277;28;20028;-94
2023/05/27 03:07:42;;;;;;;0.50;0.50;;;13.30;99.90;;;;;;5060935;28;20025;-91
2023/05/27 03:10:08;;;;;;;0.20;0.20;;;13.80;99.90;;;;;;5061464;28;20581;-93
2023/05/27 03:12:34;;;;;;;0.20;0.20;;;13.40;99.90;;;;;;5063509;28;20553;-88
2023/05/27 03:15:00;;;;;;;0.20;0.20;;;13.40;99.90;;;;;;5065102;28;20024;-87
2023/05/27 03:17:27;;;;;;;0.20;0.20;;;13.40;99.90;;;;;;5047168;28;20206;-89
2023/05/27 03:19:52;;;;;;;0.63;0.63;;;13.40;99.90;;;;;;5066352;28;20015;-85
2023/05/27 03:22:18;;;;;;;0.20;0.20;;;13.40;99.90;;;;;;5065735;28;20017;-85
2023/05/27 03:24:44;;;;;;;0.20;0.20;;;13.40;99.90;;;;;;5046356;28;20052;-81
2023/05/27 03:27:10;;;;;;;0.13;0.13;;;13.20;99.90;;;;;;5063155;28;20506;-75
2023/05/27 03:29:37;;;;;;;0.17;0.17;;;13.40;99.90;;;;;;5064187;28;20044;-93
2023/05/27 03:32:03;;;;;;;0.20;0.20;;;13.40;99.90;;;;;;5066042;28;20012;-92
2023/05/27 03:34:28;;;;;;;0.40;0.40;;;13.40;99.90;;;;;;5065532;28;20104;-79
2023/05/27 03:36:54;;;;;;;0.20;0.20;;;13.40;99.90;;;;;;5047410;28;20506;-86
2023/05/27 03:39:20;;;;;;;0.20;0.20;;;13.40;99.90;;;;;;5065650;28;20515;-87
2023/05/27 03:41:47;;;;;;;0.20;0.20;;;13.40;99.90;;;;;;5065382;28;20020;-91
2023/05/27 03:44:12;;;;;;;0.20;0.20;;;13.40;99.90;;;;;;5063862;28;20335;-93
2023/05/27 03:46:38;;;;;;;0.20;0.20;;;13.20;99.90;;;;;;5065338;28;20153;-91
2023/05/27 03:49:04;;;;;;;0.20;0.20;;;13.40;99.90;;;;;;5064303;28;20050;-80
2023/05/27 03:51:31;;;;;;;0.20;0.20;;;13.40;99.90;;;;;;5046480;28;20106;-87
2023/05/27 03:53:57;;;;;;;0.35;0.35;;;13.50;99.90;;;;;;5061289;28;20045;-75
2023/05/27 03:56:22;;;;;;;0.10;0.10;;;13.50;99.90;;;;;;5059802;28;20449;-76
2023/05/27 03:58:50;;;;;;;0.80;0.80;;;13.50;99.90;;;;;;5061126;28;20258;-75
2023/05/27 04:01:16;;;;;;;0.10;0.10;;;13.50;99.90;;;;;;5062705;28;20042;-77
2023/05/27 04:03:43;;;;;;;0.20;0.20;;;13.50;99.90;;;;;;5066837;28;20242;-80
2023/05/27 04:06:09;;;;;;;0.20;0.20;;;13.60;99.90;;;;;;5065855;28;20028;-74
2023/05/27 04:08:37;;;;;;;2.75;2.58;;;13.60;99.90;;;;;;5060351;28;20475;-75
2023/05/27 04:11:03;;;;;;;0.35;0.35;;;13.70;99.90;;;;;;5043346;28;20036;-74
2023/05/27 04:13:29;;;;;;;2.95;2.85;;;13.70;99.90;;;;;;5062633;28;20020;-86
2023/05/27 04:15:56;;;;;;;0.22;0.22;;;13.70;99.90;;;;;;5060099;28;20164;-75
2023/05/27 04:18:22;;;;;;;0.20;0.20;;;13.80;99.90;;;;;;5060997;28;20024;-92
2023/05/27 04:20:50;;;;;;;3.10;2.80;;;13.90;99.90;;;;;;5061537;28;20089;-74
2023/05/27 04:23:16;;;;;;;0.20;0.20;;;14.20;99.90;;;;;;5062566;28;20217;-76
2023/05/27 04:25:42;;;;;;;0.20;0.20;;;14.00;99.90;;;;;;5061887;28;20495;-90
2023/05/27 04:28:09;;;;;;;0.20;0.20;;;13.90;99.90;;;;;;5060373;28;20143;-73
2023/05/27 04:30:35;;;;;;;0.20;0.20;;;13.90;99.90;;;;;;5061473;28;20035;-75
2023/05/27 04:33:02;;;;;;;1.90;1.85;;;13.90;99.90;;;;;;5065842;28;20436;-75
2023/05/27 04:35:30;;;;;;;0.20;0.20;;;13.90;99.90;;;;;;5068630;28;20037;-74
2023/05/27 04:37:58;;;;;;;0.10;0.10;;;13.90;99.90;;;;;;5060227;28;20017;-74
2023/05/27 04:40:24;;;;;;;0.30;0.30;;;13.90;99.90;;;;;;5069870;28;20088;-74
2023/05/27 04:42:51;;;;;;;0.20;0.20;;;13.90;99.90;;;;;;5061396;28;20027;-74
2023/05/27 04:45:17;;;;;;;0.47;0.47;;;13.80;99.90;;;;;;5059392;28;20023;-88
2023/05/27 04:47:42;;;;;;;0.20;0.20;;;13.80;99.90;;;;;;5044042;28;20028;-73
2023/05/27 04:50:10;;;;;;;0.20;0.20;;;13.70;99.90;;;;;;5040755;28;20436;-80
2023/05/27 04:52:40;;;;;;;0.98;0.98;;;13.70;99.90;;;;;;5059545;28;20162;-88
2023/05/27 04:55:08;;;;;;;0.10;0.10;;;13.70;99.90;;;;;;5060669;28;20689;-75
2023/05/27 04:57:34;;;;;;;0.20;0.20;;;13.70;99.90;;;;;;5058844;28;20012;-74
2023/05/27 05:02:39;;;;;;;0.20;0.20;;;15.10;99.90;;;;;;5059316;28;20039;-74
2023/05/27 05:05:08;;;;;;;0.60;0.60;;;13.80;99.90;;;;;;5059435;28;20097;-74
2023/05/27 05:07:37;;;;;;;0.20;0.20;;;13.80;99.90;;;;;;5058730;28;20020;-76
2023/05/27 05:10:05;;;;;;;0.30;0.30;;;13.80;99.90;;;;;;5058993;28;20019;-74
2023/05/27 05:12:31;;;;;;;0.17;0.17;;;13.90;99.90;;;;;;5058605;28;20029;-74
2023/05/27 05:14:57;;;;;;;0.20;0.20;;;14.00;99.90;;;;;;5059589;28;20044;-74
2023/05/27 05:17:24;;;;;;;0.20;0.20;;;14.10;99.90;;;;;;5059920;28;20226;-74
2023/05/27 05:19:51;;;;;;;0.10;0.10;;;14.10;99.90;;;;;;5058350;28;20098;-80
2023/05/27 05:22:18;;;;;;;0.10;0.10;;;14.30;99.90;;;;;;5058861;28;20035;-76
2023/05/27 05:24:46;;;;;;;0.17;0.17;;;14.30;99.90;;;;;;5058839;28;20229;-77
2023/05/27 05:27:12;;;;;;;0.20;0.20;;;14.40;99.90;;;;;;5040210;28;20037;-75
2023/05/27 05:29:38;;;;;;;0.10;0.10;;;14.50;99.90;;;;;;5059033;28;20067;-75
2023/05/27 05:32:04;;;;;;;0.38;0.38;;;14.40;99.90;;;;;;5059569;28;20048;-77
2023/05/27 05:34:30;;;;;;;0.20;0.20;;;14.60;99.90;;;;;;5058270;28;20025;-74
2023/05/27 05:36:56;;;;;;;0.20;0.20;;;14.70;99.90;;;;;;5058727;28;20027;-74
2023/05/27 05:39:22;;;;;;;0.20;0.20;;;14.80;99.90;;;;;;5058520;28;20024;-86
2023/05/27 05:41:48;;;;;;;0.20;0.20;;;14.80;99.90;;;;;;5060712;28;20122;-85
2023/05/27 05:44:15;;;;;;;0.20;0.20;;;14.80;99.90;;;;;;5061223;28;20012;-74
2023/05/27 05:46:41;;;;;;;0.20;0.20;;;14.90;99.90;;;;;;5057406;28;20100;-74
2023/05/27 05:49:07;;;;;;;0.20;0.20;;;16.10;99.90;;;;;;5059759;28;20125;-91
2023/05/27 05:51:33;;;;;;;0.10;0.10;;;14.90;99.90;;;;;;5060173;28;20025;-89
2023/05/27 05:53:59;;;;;;;0.10;0.10;;;14.80;99.90;;;;;;5057957;28;20295;-74
2023/05/27 05:56:28;;;;;;;0.45;0.45;;;14.70;99.90;;;;;;5057472;28;20033;-89
2023/05/27 05:58:54;;;;;;;0.22;0.22;;;14.70;99.90;;;;;;5042680;28;20028;-73
2023/05/27 06:01:19;;;;;;;0.32;0.32;;;14.70;99.90;;;;;;5061445;28;20024;-74
2023/05/27 06:03:45;;;;;;;0.35;0.35;;;14.80;99.90;;;;;;5059122;28;20379;-87
2023/05/27 06:06:11;;;;;;;0.10;0.10;;;14.80;99.90;;;;;;5063328;28;20479;-86
2023/05/27 06:08:37;;;;;;;0.20;0.20;;;14.90;99.90;;;;;;5059455;28;20025;-84
2023/05/27 06:11:03;;;;;;;0.20;0.20;;;14.90;99.90;;;;;;5069124;28;20071;-73
2023/05/27 06:13:29;;;;;;;0.20;0.20;;;14.90;99.90;;;;;;5059415;28;20467;-73
2023/05/27 06:15:55;;;;;;;2.00;1.90;;;14.80;99.90;;;;;;5060807;28;20029;-73
2023/05/27 06:18:21;;;;;;;1.20;1.20;;;14.80;99.90;;;;;;5062028;28;20313;-85
2023/05/27 06:20:47;;;;;;;0.40;0.40;;;14.80;99.90;;;;;;5074642;28;20516;-73
2023/05/27 06:23:13;;;;;;;0.20;0.20;;;14.60;99.90;;;;;;5059053;28;20154;-76
2023/05/27 06:25:39;;;;;;;0.20;0.20;;;14.50;99.90;;;;;;5043818;28;20418;-83
2023/05/27 06:28:05;;;;;;;0.20;0.20;;;14.40;99.90;;;;;;5062547;28;20025;-86
2023/05/27 06:30:31;;;;;;;0.20;0.20;;;14.20;99.90;;;;;;5062283;28;20078;-83
2023/05/27 06:32:57;;;;;;;0.38;0.38;;;14.30;99.90;;;;;;5063203;28;20101;-83
2023/05/27 06:35:23;;;;;;;0.10;0.10;;;14.30;99.90;;;;;;5064704;28;20059;-88
2023/05/27 06:37:49;;;;;;;0.20;0.20;;;14.30;99.90;;;;;;5063570;28;20023;-73
2023/05/27 06:40:15;;;;;;;0.20;0.20;;;14.30;99.90;;;;;;5063473;28;20035;-82
2023/05/27 06:42:40;;;;;;;0.43;0.43;;;14.20;99.90;;;;;;5062249;28;20205;-83
2023/05/27 06:45:07;;;;;;;0.28;0.28;;;14.30;99.90;;;;;;5062470;28;20333;-86
2023/05/27 06:47:32;;;;;;;0.20;0.20;;;14.30;99.90;;;;;;5065287;28;20044;-82
2023/05/27 06:49:58;;;;;;;0.20;0.20;;;14.40;99.90;;;;;;5066518;28;20052;-84
2023/05/27 06:52:24;;;;;;;0.20;0.20;;;14.40;99.90;;;;;;5065100;28;20040;-78
2023/05/27 06:54:50;;;;;;;1.17;1.17;;;14.50;99.90;;;;;;5065770;28;20096;-83
2023/05/27 06:57:15;;;;;;;0.20;0.20;;;14.50;99.90;;;;;;5065639;28;20027;-74
2023/05/27 06:59:41;;;;;;;0.20;0.20;;;14.60;99.90;;;;;;5065750;28;20063;-87
2023/05/27 07:02:07;;;;;;;0.68;0.68;;;14.60;99.90;;;;;;5047642;28;20636;-89
2023/05/27 07:04:33;;;;;;;0.20;0.20;;;14.70;99.90;;;;;;5064981;28;20020;-77
2023/05/27 07:06:59;;;;;;;0.10;0.10;;;14.90;99.90;;;;;;5046783;28;20044;-80
2023/05/27 07:09:25;;;;;;;0.20;0.20;;;15.00;99.90;;;;;;5064764;28;20442;-86
2023/05/27 07:11:50;;;;;;;2.35;2.15;;;15.20;99.90;;;;;;5065653;28;20430;-80
2023/05/27 07:14:16;;;;;;;0.10;0.10;;;15.30;99.90;;;;;;5064542;28;20025;-84
2023/05/27 07:16:42;;;;;;;0.20;0.20;;;15.50;99.90;;;;;;5066446;28;20357;-93
2023/05/27 07:19:08;;;;;;;0.35;0.35;;;15.50;99.90;;;;;;5069247;28;20021;-83
2023/05/27 07:21:33;;;;;;;0.20;0.20;;;15.70;99.90;;;;;;5070361;28;20025;-89
2023/05/27 07:24:03;;;;;;;4.85;2.47;;;15.60;99.90;;;;;;5068327;28;20021;-89
2023/05/27 07:26:32;;;;;;;0.40;0.40;;;15.80;99.90;;;;;;5069388;28;20023;-86
2023/05/27 07:28:59;;;;;;;1.83;1.73;;;15.90;99.90;;;;;;5066836;28;20032;-82
2023/05/27 07:31:26;;;;;;;0.10;0.10;;;16.00;99.90;;;;;;5064744;28;20017;-95
2023/05/27 07:33:52;;;;;;;2.92;2.72;;;15.90;99.90;;;;;;5049477;28;20641;-95
2023/05/27 07:36:18;;;;;;;6.13;5.68;;;16.10;99.90;;;;;;5065849;28;20154;-78
2023/05/27 07:38:44;;;;;;;0.20;0.20;;;16.00;99.90;;;;;;5063816;28;20460;-87
2023/05/27 07:41:10;;;;;;;0.15;0.15;;;16.20;99.90;;;;;;5066179;28;20029;-89
2023/05/27 07:43:36;;;;;;;0.10;0.10;;;16.30;99.90;;;;;;5044834;28;20044;-75
2023/05/27 07:46:02;;;;;;;0.45;0.45;;;16.30;99.90;;;;;;5063871;28;20579;-92
2023/05/27 07:48:29;;;;;;;0.40;0.40;;;16.40;99.90;;;;;;5065394;28;20024;-86
2023/05/27 07:50:57;;;;;;;0.20;0.20;;;14.70;99.90;;;;;;5063377;28;20415;-74
2023/05/27 07:53:23;;;;;;;0.10;0.10;;;16.50;99.90;;;;;;5067814;28;20048;-86
2023/05/27 07:55:49;;;;;;;0.30;0.30;;;16.50;99.90;;;;;;5072528;28;20692;-93
2023/05/27 07:58:16;;;;;;;0.10;0.10;;;16.60;99.90;;;;;;5084659;28;20016;-80
2023/05/27 08:00:46;;;;;;;0.22;0.22;;;16.70;99.90;;;;;;5081863;28;20086;-76
2023/05/27 08:03:12;;;;;;;0.52;0.52;;;16.80;99.90;;;;;;5048961;28;20033;-82
2023/05/27 08:05:38;;;;;;;0.15;0.15;;;16.90;99.90;;;;;;5064569;28;20020;-77
2023/05/27 08:08:04;;;;;;;0.13;0.13;;;17.50;99.90;;;;;;5064597;28;20737;-95
2023/05/27 08:10:30;;;;;;;0.80;0.80;;;17.10;99.90;;;;;;5049689;28;20067;-80
2023/05/27 08:12:57;;;;;;;1.70;1.60;;;17.20;99.90;;;;;;5063905;28;20028;-90
2023/05/27 08:15:23;;;;;;;2.83;1.75;;;17.40;99.90;;;;;;5067586;28;20086;-75
2023/05/27 08:17:49;;;;;;;0.40;0.40;;;17.40;99.90;;;;;;5065487;28;20709;-76
2023/05/27 08:20:15;;;;;;;0.20;0.20;;;19.40;99.90;;;;;;5069853;28;20104;-84
2023/05/27 08:22:42;;;;;;;0.30;0.30;;;17.40;99.90;;;;;;5066976;28;20047;-76
2023/05/27 08:25:08;;;;;;;0.85;0.85;;;17.30;99.90;;;;;;5066825;28;20038;-85
2023/05/27 08:27:51;;;;;;;0.10;0.10;;;17.20;99.90;;;;;;5076305;28;20051;-91
2023/05/27 08:30:18;;;;;;;0.10;0.10;;;17.10;99.90;;;;;;5067306;28;20047;-93
2023/05/27 08:32:45;;;;;;;0.50;0.50;;;17.10;99.90;;;;;;5066695;28;20024;-85
2023/05/27 08:35:11;;;;;;;0.25;0.25;;;17.10;99.90;;;;;;5064775;28;20361;-75
2023/05/27 08:37:37;;;;;;;0.10;0.10;;;17.10;99.90;;;;;;5060490;28;20114;-78
2023/05/27 08:40:07;;;;;;;0.20;0.20;;;17.10;99.90;;;;;;5062149;28;20020;-74
2023/05/27 08:42:33;;;;;;;0.10;0.10;;;17.20;99.90;;;;;;5060812;28;20100;-75
2023/05/27 08:44:59;;;;;;;0.10;0.10;;;17.20;99.90;;;;;;5061181;28;20024;-88
2023/05/27 08:47:34;;;;;;;1.27;1.27;;;17.20;99.90;;;;;;5069310;28;20082;-76
2023/05/27 08:50:01;;;;;;;0.10;0.10;;;14.70;99.90;;;;;;5063131;28;20023;-75
2023/05/27 08:52:32;;;;;;;0.10;0.10;;;17.00;99.90;;;;;;5045607;28;20048;-89
2023/05/27 08:54:58;;;;;;;0.20;0.20;;;16.90;99.90;;;;;;5076079;28;20028;-74
2023/05/27 08:57:35;;;;;;;0.17;0.17;;;16.80;99.90;;;;;;5065116;28;20012;-74
2023/05/27 09:00:52;;;;;;;0.10;0.10;;;16.70;99.90;;;;;;5061268;28;20024;-74
2023/05/27 09:03:17;;;;;;;0.20;0.20;;;16.80;99.90;;;;;;5045536;28;20020;-75
2023/05/27 09:05:43;;;;;;;0.17;0.17;;;16.90;99.90;;;;;;5090528;28;20008;-74
2023/05/27 09:08:09;;;;;;;0.20;0.20;;;16.90;99.90;;;;;;5075007;28;20077;-73
2023/05/27 09:10:39;;;;;;;0.10;0.10;;;17.10;99.90;;;;;;5065734;28;20802;-74
2023/05/27 09:13:05;;;;;;;0.10;0.10;;;17.40;99.90;;;;;;5054736;28;20016;-74
2023/05/27 09:15:32;;;;;;;0.20;0.20;;;17.40;99.90;;;;;;5080241;28;20102;-84
2023/05/27 09:17:58;;;;;;;0.10;0.10;;;17.50;99.90;;;;;;5061388;28;20103;-75
2023/05/27 09:20:29;;;;;;;0.10;0.10;;;17.60;99.90;;;;;;5043361;28;20719;-75
2023/05/27 09:23:03;;;;;;;0.57;0.57;;;17.70;99.90;;;;;;5048697;28;20667;-79
2023/05/27 09:25:30;;;;;;;1.80;1.70;;;17.70;99.90;;;;;;5068863;28;20021;-87
2023/05/27 09:27:56;;;;;;;0.10;0.10;;;17.70;99.90;;;;;;5048787;28;20025;-92
2023/05/27 09:30:25;;;;;;;19.17;3.20;;;17.80;99.90;;;;;;5047139;28;20035;-95
2023/05/27 09:32:51;;;;;;;0.22;0.22;;;18.00;99.90;;;;;;5065489;28;20032;-91
2023/05/27 09:35:17;;;;;;;0.17;0.17;;;18.20;99.90;;;;;;5066216;28;20040;-75
2023/05/27 09:37:45;;;;;;;0.13;0.13;;;18.30;99.90;;;;;;5065658;28;20554;-75
2023/05/27 09:40:14;;;;;;;0.10;0.10;;;18.70;99.90;;;;;;5061208;28;20025;-93
2023/05/27 09:42:50;;;;;;;0.10;0.10;;;19.10;99.90;;;;;;5067788;28;20025;-87
2023/05/27 09:45:17;;;;;;;5.13;4.63;;;19.40;99.90;;;;;;5066895;28;20028;-93
2023/05/27 09:47:54;;;;;;;0.20;0.20;;;19.50;99.90;;;;;;5064424;28;20084;-74
2023/05/27 09:50:21;;;;;;;0.10;0.10;;;19.50;99.90;;;;;;5063647;28;20025;-74
2023/05/27 09:52:48;;;;;;;0.10;0.10;;;19.60;99.90;;;;;;5061618;28;20675;-76
2023/05/27 09:55:17;;;;;;;0.40;0.40;;;19.70;99.90;;;;;;5061666;28;20063;-75
2023/05/27 09:57:44;;;;;;;0.10;0.10;;;20.30;99.90;;;;;;5062935;28;20052;-76
2023/05/27 10:00:15;;;;;;;0.15;0.15;;;19.60;99.90;;;;;;5060172;28;20025;-77
2023/05/27 10:02:51;;;;;;;0.20;0.20;;;19.70;99.90;;;;;;5048468;28;20021;-91
2023/05/27 10:05:20;;;;;;;0.10;0.10;;;19.60;99.90;;;;;;5065110;28;20021;-91
2023/05/27 10:07:46;;;;;;;0.15;0.15;;;19.90;99.90;;;;;;5063419;28;20016;-85
2023/05/27 10:10:16;;;;;;;1.67;0.68;;;20.00;99.90;;;;;;5060954;28;20033;-89
2023/05/27 10:12:43;;;;;;;0.10;0.10;;;20.10;99.90;;;;;;5064542;28;20696;-89
2023/05/27 10:15:09;;;;;;;0.52;0.52;;;21.20;99.90;;;;;;5062624;28;20060;-87
2023/05/27 10:17:52;;;;;;;1.65;1.55;;;20.60;99.90;;;;;;5062862;28;20028;-82
2023/05/27 10:20:34;;;;;;;0.20;0.20;;;20.90;99.90;;;;;;5063233;28;20023;-75
2023/05/27 10:23:15;;;;;;;0.28;0.28;;;21.10;99.90;;;;;;5063260;28;20050;-77
2023/05/27 10:25:52;;;;;;;0.20;0.20;;;21.40;99.90;;;;;;5065115;28;20061;-76
2023/05/27 10:28:41;;;;;;;0.40;0.40;;;21.70;99.90;;;;;;5068365;28;20031;-76
2023/05/27 10:31:18;;;;;;;0.10;0.10;;;21.80;99.90;;;;;;5067348;28;20086;-77
2023/05/27 10:33:46;;;;;;;0.20;0.20;;;22.10;99.90;;;;;;5062867;28;20043;-79
2023/05/27 10:36:17;;;;;;;2.38;2.17;;;22.20;99.90;;;;;;5066105;28;20043;-74
2023/05/27 10:38:55;;;;;;;0.40;0.40;;;22.30;99.90;;;;;;5069517;28;20025;-75
2023/05/27 10:41:22;;;;;;;0.10;0.10;;;22.50;99.90;;;;;;5045378;28;20035;-74
2023/05/27 10:44:00;;;;;;;1.13;1.00;;;22.80;99.90;;;;;;5068367;28;20020;-86
2023/05/27 10:46:26;;;;;;;0.10;0.10;;;22.90;99.90;;;;;;5064445;28;20100;-82
2023/05/27 10:48:52;;;;;;;0.10;0.10;;;23.40;99.90;;;;;;5068870;28;20021;-81
2023/05/27 10:51:18;;;;;;;0.10;0.10;;;23.40;99.90;;;;;;5064215;28;20020;-89
2023/05/27 10:53:46;;;;;;;0.10;0.10;;;23.10;99.90;;;;;;5064757;28;20037;-85
2023/05/27 10:56:12;;;;;;;0.20;0.20;;;23.60;99.90;;;;;;5072549;28;20295;-82
2023/05/27 10:58:38;;;;;;;0.10;0.10;;;23.40;99.90;;;;;;5049439;28;20046;-80
2023/05/27 11:01:10;;;;;;;0.10;0.10;;;23.10;99.90;;;;;;5066067;28;20021;-75
2023/05/27 11:03:43;;;;;;;0.10;0.10;;;22.70;99.90;;;;;;5065847;28;20017;-80
2023/05/27 11:06:11;;;;;;;0.13;0.13;;;22.30;99.90;;;;;;5065845;28;20047;-85
2023/05/27 11:08:43;;;;;;;0.25;0.25;;;22.10;99.90;;;;;;5043264;28;20056;-74
2023/05/27 11:11:10;;;;;;;10.80;3.85;;;22.00;99.90;;;;;;5061335;28;20024;-75
2023/05/27 11:13:42;;;;;;;4.97;2.72;;;22.00;99.90;;;;;;5059256;28;20060;-83
2023/05/27 11:16:07;;;;;;;1.20;1.17;;;21.90;99.90;;;;;;5061005;28;20024;-76
2023/05/27 11:18:41;;;;;;;0.50;0.50;;;22.40;99.90;;;;;;5059692;28;20017;-76
2023/05/27 11:21:09;;;;;;;0.10;0.10;;;21.40;99.90;;;;;;5060600;28;20021;-76
2023/05/27 11:23:48;;;;;;;0.30;0.30;;;21.20;99.90;;;;;;5060519;28;20026;-75
2023/05/27 11:26:21;;;;;;;0.30;0.30;;;21.10;99.90;;;;;;5059991;28;20075;-77
2023/05/27 11:28:54;;;;;;;0.10;0.10;;;20.80;99.90;;;;;;5060066;28;20147;-74
2023/05/27 11:31:21;;;;;;;0.45;0.45;;;20.50;99.90;;;;;;5060981;28;20031;-73
2023/05/27 11:33:50;;;;;;;0.10;0.10;;;20.30;99.90;;;;;;5061261;28;20017;-73
2023/05/27 11:36:16;;;;;;;0.20;0.20;;;20.00;99.90;;;;;;5061367;28;20028;-76
2023/05/27 11:38:59;;;;;;;0.17;0.17;;;19.80;99.90;;;;;;5064184;28;20047;-73
2023/05/27 11:41:30;;;;;;;0.45;0.45;;;19.20;99.90;;;;;;5062829;28;20285;-73
2023/05/27 11:44:00;;;;;;;0.50;0.50;;;19.20;99.90;;;;;;5061908;28;20039;-74
2023/05/27 11:46:39;;;;;;;1.58;1.55;;;19.10;99.90;;;;;;5061600;28;20012;-74
2023/05/27 11:49:10;;;;;;;0.20;0.20;;;19.00;99.90;;;;;;5043521;28;20107;-80
2023/05/27 11:51:43;;;;;;;0.10;0.10;;;19.10;99.90;;;;;;5061960;28;20028;-74
2023/05/27 11:54:20;;;;;;;;;;;19.20;99.90;;;;;;5062676;28;20048;-74
2023/05/27 11:56:47;;;;;;;0.63;0.63;;;22.60;99.90;;;;;;5043216;28;20578;-75
2023/05/27 11:59:13;;;;;;;2.90;2.80;;;19.40;99.90;;;;;;5061423;28;20087;-73
2023/05/27 12:01:40;;;;;;;0.25;0.25;;;19.70;99.90;;;;;;5060328;28;20081;-73
2023/05/27 12:04:06;;;;;;;0.57;0.57;;;20.00;99.90;;;;;;5060467;28;20138;-74
2023/05/27 12:06:32;;;;;;;0.10;0.10;;;20.30;99.90;;;;;;5060360;28;20024;-74
2023/05/27 12:08:57;;;;;;;0.32;0.32;;;20.40;99.90;;;;;;5042627;28;20017;-73
2023/05/27 12:11:23;;;;;;;0.20;0.20;;;20.50;99.90;;;;;;5042507;28;20692;-74
2023/05/27 12:13:51;;;;;;;0.30;0.30;;;20.70;99.90;;;;;;5061664;28;20025;-77
2023/05/27 12:16:17;;;;;;;0.20;0.20;;;20.70;99.90;;;;;;5061904;28;20129;-77
2023/05/27 12:18:42;;;;;;;0.10;0.10;;;20.60;99.90;;;;;;5060647;28;20072;-74
2023/05/27 12:21:08;;;;;;;3.53;1.05;;;20.80;99.90;;;;;;5061001;28;20017;-74
2023/05/27 12:23:34;;;;;;;0.10;0.10;;;20.70;99.90;;;;;;5059941;28;20031;-74
2023/05/27 12:26:00;;;;;;;0.15;0.15;;;20.80;99.90;;;;;;5059787;28;20406;-73
2023/05/27 12:28:26;;;;;;;1.02;0.77;;;20.50;99.90;;;;;;5060377;28;20040;-73
2023/05/27 12:30:52;;;;;;;0.47;0.47;;;20.90;99.90;;;;;;5061631;28;20246;-74
2023/05/27 12:33:18;;;;;;;0.20;0.20;;;21.00;99.90;;;;;;5060419;28;20017;-74
2023/05/27 12:35:44;;;;;;;0.52;0.52;;;21.20;99.90;;;;;;5059947;28;20028;-74
2023/05/27 12:38:10;;;;;;;0.20;0.20;;;21.50;99.90;;;;;;5041476;28;20533;-74
2023/05/27 12:40:36;;;;;;;0.15;0.15;;;21.80;99.90;;;;;;5059857;28;20024;-74
2023/05/27 12:43:03;;;;;;;0.43;0.43;;;22.20;99.90;;;;;;5059536;28;20032;-74
2023/05/27 12:45:30;;;;;;;0.50;0.50;;;20.80;99.90;;;;;;5058762;28;20506;-76
2023/05/27 12:47:55;;;;;;;0.22;0.22;;;21.80;99.90;;;;;;5059908;28;20024;-74
2023/05/27 12:50:22;;;;;;;1.20;1.10;;;21.60;99.90;;;;;;5061048;28;20604;-73
2023/05/27 12:52:49;;;;;;;0.65;0.55;;;22.10;99.90;;;;;;5061013;28;20219;-73
2023/05/27 12:55:19;;;;;;;0.20;0.20;;;20.90;99.90;;;;;;5060666;28;20071;-73